Terminal Aerodrome Forecast
Issued by NWS North Platte, NE

Home | Current Version | Previous Version | Graphics & Text | Print | Product List | Glossary On
Versions: 1 2 3 4 5 6 7 8 9 10 11 12 13 14 15 16 17 18 19 20 21 22
000
FTUS43 KLBF 301100
TAFVTN
TAF
KVTN 301123Z 3012/3112 VRB03KT P6SM SCT006
      TEMPO 3012/3014 4SM BR
     FM301500 15008KT P6SM SKC
     FM302000 17014G21KT P6SM SCT050
     FM310300 16017G22KT P6SM BKN150=

USA.gov is the U.S. government's official web portal to all federal, state and local government web resources and services.